Time;durP1;ratioP1;P1;durP2;ratioP2;P2;SDS_P1;SDS_P2;PMS_P1;PMS_P2;Temp;Humidity;BMP_temperature;BMP_pressure;BME280_temperature;BME280_humidity;BME280_pressure;Samples;Min_cycle;Max_cycle;Signal;HPM_P1;HPM_P2
2021/11/01 00:00:45;;;;;;;5.85;4.15;;;;;;;14.40;93.18;98913.41;5036511;28;20041;-53
2021/11/01 00:03:13;;;;;;;5.85;3.80;;;;;;;14.42;93.69;98913.28;5032661;28;20052;-54
2021/11/01 00:05:40;;;;;;;5.72;3.75;;;;;;;14.44;94.81;98917.50;5035902;28;20570;-52
2021/11/01 00:08:06;;;;;;;5.22;3.72;;;;;;;14.39;95.47;98901.88;5040956;28;20041;-54
2021/11/01 00:10:33;;;;;;;4.53;3.38;;;;;;;14.38;96.70;98912.66;5042570;28;20041;-55
2021/11/01 00:13:00;;;;;;;5.25;3.90;;;;;;;14.37;96.58;98909.16;5028696;28;20119;-57
2021/11/01 00:15:27;;;;;;;5.88;4.00;;;;;;;14.31;97.31;98917.69;5047075;28;20060;-53
2021/11/01 00:17:53;;;;;;;7.05;3.70;;;;;;;14.20;97.91;98904.44;5040792;28;20049;-54
2021/11/01 00:20:22;;;;;;;4.95;3.65;;;;;;;14.15;99.33;98904.00;5035330;28;20128;-53
2021/11/01 00:22:50;;;;;;;5.28;3.55;;;;;;;14.14;100.00;98909.47;5030344;28;20041;-53
2021/11/01 00:25:17;;;;;;;4.68;3.70;;;;;;;14.09;100.00;98911.66;5040466;28;20042;-53
2021/11/01 00:27:44;;;;;;;6.18;3.95;;;;;;;14.04;100.00;98922.69;5037002;28;20048;-54
2021/11/01 00:30:11;;;;;;;4.18;3.30;;;;;;;13.98;100.00;98921.41;5044843;28;20116;-53
2021/11/01 00:32:38;;;;;;;4.47;4.03;;;;;;;14.07;100.00;98930.41;5035068;28;20049;-53
2021/11/01 00:35:06;;;;;;;6.13;4.40;;;;;;;14.12;100.00;98932.69;5043597;28;20477;-54
2021/11/01 00:37:33;;;;;;;6.53;4.93;;;;;;;14.05;100.00;98943.84;5041330;28;20041;-53
2021/11/01 00:40:00;;;;;;;4.95;4.28;;;;;;;13.95;100.00;98942.94;5041554;28;20041;-53
2021/11/01 00:42:28;;;;;;;6.65;5.38;;;;;;;13.93;100.00;98962.66;5035566;28;20049;-54
2021/11/01 00:44:55;;;;;;;7.65;5.50;;;;;;;13.87;100.00;98957.84;5034610;28;20042;-56
2021/11/01 00:47:21;;;;;;;8.73;5.32;;;;;;;13.84;100.00;98955.47;5038905;28;20042;-55
2021/11/01 00:49:49;;;;;;;7.13;5.50;;;;;;;13.82;100.00;98960.06;5049918;28;20048;-54
2021/11/01 00:52:22;;;;;;;6.72;5.97;;;;;;;13.81;100.00;98974.34;5034815;28;20119;-54
2021/11/01 00:54:49;;;;;;;8.55;5.55;;;;;;;13.70;100.00;98952.09;5045890;28;20045;-57
2021/11/01 00:57:16;;;;;;;7.57;5.30;;;;;;;13.77;100.00;98972.91;5044520;28;20498;-53
2021/11/01 00:59:43;;;;;;;6.93;5.70;;;;;;;13.76;100.00;98969.38;5043628;28;20059;-54
2021/11/01 01:02:11;;;;;;;7.38;5.10;;;;;;;13.74;100.00;98968.66;5033966;28;20049;-55
2021/11/01 01:04:39;;;;;;;4.13;3.30;;;;;;;13.76;100.00;98973.88;5040742;28;20051;-53
2021/11/01 01:07:06;;;;;;;4.78;3.25;;;;;;;13.83;100.00;98980.38;5045519;28;20056;-54
2021/11/01 01:09:33;;;;;;;6.25;3.20;;;;;;;13.81;100.00;98971.69;5045820;28;20049;-53
2021/11/01 01:12:01;;;;;;;3.30;2.70;;;;;;;13.76;100.00;98961.41;5040509;28;21048;-54
2021/11/01 01:14:30;;;;;;;3.83;2.90;;;;;;;13.70;100.00;98948.59;5040522;28;20053;-53
2021/11/01 01:17:00;;;;;;;4.18;3.10;;;;;;;13.67;100.00;98960.38;5045617;28;20048;-54
2021/11/01 01:19:34;;;;;;;4.13;2.90;;;;;;;13.62;100.00;98973.19;5043952;28;20080;-53
2021/11/01 01:24:45;;;;;;;4.78;3.05;;;;;;;13.56;100.00;98970.16;5046464;28;20044;-52
2021/11/01 01:27:12;;;;;;;3.47;2.55;;;;;;;13.51;100.00;98980.38;5042262;28;20057;-54
2021/11/01 01:29:38;;;;;;;5.40;3.20;;;;;;;13.47;100.00;98974.44;5043038;28;20049;-55
2021/11/01 01:32:06;;;;;;;3.85;2.88;;;;;;;13.43;100.00;98993.41;5036265;28;20041;-54
2021/11/01 01:34:33;;;;;;;7.00;4.03;;;;;;;13.37;100.00;98985.94;5044445;28;20536;-54
2021/11/01 01:36:59;;;;;;;9.50;5.15;;;;;;;13.32;100.00;98994.28;5048784;28;20048;-54
2021/11/01 01:39:26;;;;;;;8.52;4.50;;;;;;;13.24;100.00;99002.88;5042146;28;20044;-55
2021/11/01 01:41:52;;;;;;;7.05;2.85;;;;;;;13.09;100.00;99009.38;5030883;28;20060;-54
2021/11/01 01:44:19;;;;;;;5.60;2.42;;;;;;;12.90;100.00;99006.50;5041402;28;20575;-52
2021/11/01 01:46:45;;;;;;;4.95;2.22;;;;;;;12.73;100.00;99021.09;5046737;28;20049;-52
2021/11/01 01:49:12;;;;;;;4.20;1.85;;;;;;;12.59;100.00;99016.00;5043860;28;20098;-53
2021/11/01 01:51:39;;;;;;;4.10;1.70;;;;;;;12.48;100.00;99022.13;5042091;28;20049;-53
2021/11/01 01:54:05;;;;;;;2.72;1.23;;;;;;;12.38;100.00;99029.09;5038159;28;20516;-54
2021/11/01 01:56:32;;;;;;;6.65;1.58;;;;;;;12.32;98.12;99045.47;5045204;28;20053;-53
2021/11/01 01:59:03;;;;;;;3.38;1.15;;;;;;;12.13;96.72;99053.97;5042945;28;20045;-53
2021/11/01 02:01:30;;;;;;;3.97;0.90;;;;;;;11.93;96.16;99059.94;5037153;28;20045;-54
2021/11/01 02:03:58;;;;;;;6.38;1.00;;;;;;;11.77;96.35;99062.84;5023585;28;20069;-53
2021/11/01 02:06:50;;;;;;;3.55;1.10;;;;;;;11.68;97.21;99063.47;5036797;28;20051;-52
2021/11/01 02:09:27;;;;;;;6.45;1.00;;;;;;;11.59;98.89;99065.00;5039380;28;20073;-53
2021/11/01 02:11:59;;;;;;;6.93;1.17;;;;;;;11.53;99.26;99064.59;5020064;28;20485;-51
2021/11/01 02:14:32;;;;;;;6.43;0.80;;;;;;;11.51;100.00;99054.09;5042308;28;20060;-52
2021/11/01 02:17:00;;;;;;;10.13;1.20;;;;;;;11.45;100.00;99054.53;5046809;28;20068;-52
2021/11/01 02:19:32;;;;;;;7.47;0.98;;;;;;;11.39;100.00;99062.06;5043938;28;20059;-53
2021/11/01 02:22:02;;;;;;;8.88;1.40;;;;;;;11.34;100.00;99049.16;5032359;28;20053;-52
2021/11/01 02:24:30;;;;;;;4.88;1.27;;;;;;;11.30;100.00;99044.19;5042165;28;20045;-54
2021/11/01 02:26:57;;;;;;;3.42;1.00;;;;;;;11.27;100.00;99042.59;5042454;28;20052;-53
2021/11/01 02:29:26;;;;;;;7.05;0.90;;;;;;;11.23;100.00;99036.66;5044850;28;20508;-53
2021/11/01 02:31:53;;;;;;;4.85;1.30;;;;;;;11.21;100.00;99040.38;5038211;28;20057;-54
2021/11/01 02:34:20;;;;;;;4.57;0.90;;;;;;;11.20;100.00;99041.34;5040893;28;20068;-54
2021/11/01 02:36:47;;;;;;;9.07;1.23;;;;;;;11.19;100.00;99039.63;5038285;28;20041;-52
2021/11/01 02:39:15;;;;;;;11.07;1.35;;;;;;;11.15;100.00;99041.69;5040717;28;20045;-54
2021/11/01 02:41:42;;;;;;;9.95;1.25;;;;;;;11.00;100.00;99023.38;5032584;28;20055;-52
2021/11/01 02:44:10;;;;;;;5.97;1.08;;;;;;;11.04;100.00;99054.81;5035669;28;20049;-52
2021/11/01 02:46:38;;;;;;;6.25;1.10;;;;;;;10.98;100.00;99049.13;5042456;28;20050;-54
2021/11/01 02:49:06;;;;;;;4.93;0.95;;;;;;;10.94;100.00;99044.97;5043180;28;20053;-53
2021/11/01 02:51:33;;;;;;;7.95;1.42;;;;;;;10.87;100.00;99042.75;5033570;28;20037;-52
2021/11/01 02:54:00;;;;;;;4.43;1.02;;;;;;;10.86;100.00;99041.06;5034844;28;20041;-54
2021/11/01 02:56:27;;;;;;;5.82;1.38;;;;;;;10.86;100.00;99033.09;5035676;28;20397;-52
2021/11/01 02:58:54;;;;;;;8.23;1.50;;;;;;;10.86;100.00;99013.75;5046522;28;20041;-54
2021/11/01 03:01:22;;;;;;;12.80;1.30;;;;;;;10.88;100.00;99009.16;5039030;28;20069;-52
2021/11/01 03:03:49;;;;;;;8.85;1.42;;;;;;;10.86;100.00;99006.63;5032730;28;20490;-53
2021/11/01 03:06:22;;;;;;;5.38;1.20;;;;;;;10.84;100.00;99021.81;5037808;28;20074;-52
2021/11/01 03:08:51;;;;;;;7.25;1.25;;;;;;;10.83;100.00;99028.03;5044920;28;20048;-53
2021/11/01 03:11:18;;;;;;;5.18;1.38;;;;;;;10.84;100.00;98997.97;5040093;28;20047;-54
2021/11/01 03:13:46;;;;;;;7.40;1.10;;;;;;;10.85;100.00;98978.47;5031308;28;20044;-53
2021/11/01 03:16:13;;;;;;;6.45;1.20;;;;;;;10.82;100.00;98978.69;5041940;28;20104;-52
2021/11/01 03:19:06;;;;;;;8.07;1.98;;;;;;;10.82;100.00;98977.84;5045785;28;20050;-52
2021/11/01 03:21:36;;;;;;;5.82;1.30;;;;;;;10.81;100.00;98973.50;5035069;28;20060;-54
2021/11/01 03:24:04;;;;;;;8.00;1.50;;;;;;;10.77;100.00;98986.09;5035225;28;20048;-53
2021/11/01 03:26:33;;;;;;;6.47;1.38;;;;;;;10.72;100.00;98993.50;5039133;28;20051;-54
2021/11/01 03:29:02;;;;;;;11.25;2.03;;;;;;;10.69;100.00;99014.94;5042109;28;20041;-52
2021/11/01 03:31:32;;;;;;;8.27;1.30;;;;;;;10.73;100.00;99026.97;5038583;28;20121;-54
2021/11/01 03:34:00;;;;;;;8.47;1.53;;;;;;;10.76;100.00;99024.13;5033973;28;20063;-51
2021/11/01 03:36:27;;;;;;;7.13;1.30;;;;;;;10.78;100.00;99048.69;5038262;28;20057;-54
2021/11/01 03:38:56;;;;;;;5.20;1.23;;;;;;;10.79;100.00;99058.34;5043283;28;20044;-51
2021/11/01 03:41:25;;;;;;;6.80;1.50;;;;;;;10.82;100.00;99068.72;5040255;28;20045;-53
2021/11/01 03:44:02;;;;;;;6.57;1.13;;;;;;;10.83;100.00;99067.78;5021169;28;20049;-53
2021/11/01 03:46:37;;;;;;;5.97;1.27;;;;;;;10.79;100.00;99058.34;5018804;28;20064;-52
2021/11/01 03:49:05;;;;;;;7.55;1.70;;;;;;;10.78;100.00;99063.72;5019438;28;20152;-53
2021/11/01 03:54:16;;;;;;;8.57;1.42;;;;;;;10.76;100.00;99063.00;5017837;28;20041;-52
2021/11/01 03:56:44;;;;;;;5.93;1.20;;;;;;;10.73;100.00;99074.63;5023584;28;20046;-54
2021/11/01 03:59:12;;;;;;;8.73;1.27;;;;;;;10.76;100.00;99073.56;5023946;28;20498;-54
2021/11/01 04:01:40;;;;;;;6.05;0.98;;;;;;;10.73;100.00;99073.78;5014761;28;20759;-53
2021/11/01 04:04:07;;;;;;;5.47;1.50;;;;;;;10.75;100.00;99072.72;5015747;28;20051;-53
2021/11/01 04:06:35;;;;;;;6.07;0.98;;;;;;;10.77;100.00;99076.13;5019150;28;20049;-54
2021/11/01 04:09:03;;;;;;;8.63;1.20;;;;;;;10.76;100.00;99061.19;5023015;28;20076;-55
2021/11/01 04:11:30;;;;;;;4.80;1.13;;;;;;;10.79;100.00;99066.28;5018895;28;20052;-54
2021/11/01 04:14:01;;;;;;;7.38;1.02;;;;;;;10.78;100.00;99055.78;5015268;28;20048;-54
2021/11/01 04:16:52;;;;;;;;;;;;;;;10.79;100.00;99050.38;5023958;28;20056;-52
2021/11/01 04:21:48;;;;;;;7.07;1.23;;;;;;;10.81;100.00;99053.78;5025328;28;20055;-53
2021/11/01 04:24:17;;;;;;;5.50;1.20;;;;;;;10.81;100.00;99051.13;5018197;28;20042;-52
2021/11/01 04:26:44;;;;;;;3.03;0.90;;;;;;;10.81;100.00;99051.13;5017429;28;20068;-52
2021/11/01 04:29:15;;;;;;;7.88;1.60;;;;;;;10.82;100.00;99025.50;5026965;28;20521;-51
2021/11/01 04:31:45;;;;;;;5.72;0.90;;;;;;;10.80;100.00;99022.97;5018424;28;20082;-53
2021/11/01 04:34:25;;;;;;;7.10;1.10;;;;;;;10.69;100.00;99022.88;5018335;28;20049;-53
2021/11/01 04:36:54;;;;;;;8.43;1.17;;;;;;;10.62;100.00;99026.88;5021503;28;20411;-53
2021/11/01 04:52:52;;;;;;;10.95;1.50;;;;;;;10.55;100.00;99067.94;5032377;28;20041;-53
2021/11/01 04:53:26;;;;;;;3.95;1.08;;;;;;;10.65;100.00;99076.97;5034408;28;20048;-53
2021/11/01 04:55:45;;;;;;;6.13;1.42;;;;;;;10.68;100.00;99082.06;5040432;28;20160;-52
2021/11/01 04:58:11;;;;;;;2.45;1.27;;;;;;;10.70;100.00;99066.94;5044862;28;20048;-52
2021/11/01 05:00:39;;;;;;;8.38;1.73;;;;;;;10.69;100.00;99070.53;5026068;28;20040;-52
2021/11/01 05:03:14;;;;;;;9.18;2.03;;;;;;;10.56;100.00;99048.47;5033911;28;20038;-52
2021/11/01 05:05:41;;;;;;;7.60;2.75;;;;;;;10.70;100.00;99060.78;5039519;28;20060;-53
2021/11/01 05:08:08;;;;;;;7.47;2.33;;;;;;;10.74;100.00;99063.09;5041921;28;20048;-54
2021/11/01 05:10:40;;;;;;;7.40;1.92;;;;;;;10.78;100.00;99061.94;5038265;28;20520;-54
2021/11/01 05:13:13;;;;;;;8.90;2.00;;;;;;;10.85;100.00;99055.28;5033577;28;20044;-52
2021/11/01 05:15:49;;;;;;;4.75;2.50;;;;;;;10.82;100.00;99052.84;5043087;28;20049;-53
2021/11/01 05:25:53;;;;;;;6.30;3.40;;;;;;;10.94;100.00;99067.03;5037876;28;20049;-52
2021/11/01 05:31:06;;;;;;;10.25;6.40;;;;;;;10.92;100.00;99076.00;5049817;28;20128;-55
2021/11/01 05:36:02;;;;;;;15.55;10.40;;;;;;;10.95;100.00;99073.16;5039480;28;20934;-54
2021/11/01 05:38:29;;;;;;;10.77;6.88;;;;;;;10.93;100.00;99060.03;5044259;28;20532;-53
2021/11/01 05:40:56;;;;;;;8.45;5.00;;;;;;;10.93;100.00;99067.97;5045451;28;20052;-52
2021/11/01 05:43:22;;;;;;;10.90;4.38;;;;;;;10.87;100.00;99071.88;5037215;28;20498;-53
2021/11/01 05:45:49;;;;;;;10.13;3.70;;;;;;;10.85;100.00;99054.44;5041044;28;20055;-53
2021/11/01 05:48:15;;;;;;;6.03;3.10;;;;;;;10.88;100.00;99067.44;5041045;28;20045;-53
2021/11/01 05:50:42;;;;;;;7.20;3.42;;;;;;;10.87;100.00;99071.03;5044507;28;20041;-53
2021/11/01 05:53:11;;;;;;;7.22;3.28;;;;;;;10.85;100.00;99083.56;5036890;28;20033;-54
2021/11/01 06:14:35;;;;;;;9.38;2.50;;;;;;;10.73;100.00;99082.56;5035673;28;20205;-52
2021/11/01 06:17:02;;;;;;;3.95;1.75;;;;;;;10.84;100.00;99095.94;5039282;28;20040;-53
2021/11/01 06:19:29;;;;;;;9.27;2.70;;;;;;;10.77;100.00;99092.00;5044538;28;20828;-53
2021/11/01 06:21:55;;;;;;;4.80;2.67;;;;;;;10.84;100.00;99113.63;5037825;28;20048;-53
2021/11/01 06:26:48;;;;;;;6.85;2.67;;;;;;;10.79;100.00;99126.34;5042395;28;20490;-53
2021/11/01 06:29:18;;;;;;;6.13;2.55;;;;;;;10.80;100.00;99122.72;5045463;28;20616;-52
2021/11/01 06:31:56;;;;;;;9.83;3.30;;;;;;;10.76;100.00;99130.03;5043007;28;20044;-52
2021/11/01 06:34:40;;;;;;;9.20;2.97;;;;;;;10.80;100.00;99135.97;5030340;28;20049;-55
2021/11/01 06:40:24;;;;;;;7.07;3.58;;;;;;;10.79;100.00;99129.84;5037390;28;20041;-53
2021/11/01 06:42:52;;;;;;;7.78;3.88;;;;;;;10.83;100.00;99133.13;5029345;28;20040;-54
2021/11/01 06:49:40;;;;;;;9.05;4.22;;;;;;;10.82;100.00;99132.28;5036118;28;20053;-53
2021/11/01 07:24:57;;;;;;;9.77;6.50;;;;;;;10.86;100.00;99148.81;5030769;28;20119;-52
2021/11/01 07:38:47;;;;;;;15.00;7.43;;;;;;;10.98;100.00;99176.25;5034329;28;20072;-54
2021/11/01 08:22:48;;;;;;;14.43;6.93;;;;;;;11.27;100.00;99221.97;5036879;28;20064;-53
2021/11/01 08:25:49;;;;;;;10.40;5.88;;;;;;;11.31;100.00;99221.66;5027140;28;20045;-55
2021/11/01 09:04:09;;;;;;;8.40;2.53;;;;;;;11.84;99.41;99170.19;4983007;28;20039;-52
2021/11/01 09:20:21;;;;;;;6.68;2.40;;;;;;;12.25;95.60;99175.16;5042910;28;20052;-54
2021/11/01 09:23:05;;;;;;;6.25;1.80;;;;;;;12.33;94.97;99171.09;5044151;28;20044;-54
2021/11/01 09:28:26;;;;;;;4.90;1.92;;;;;;;12.29;94.79;99181.06;5046706;28;20047;-53
2021/11/01 09:36:25;;;;;;;9.25;2.47;;;;;;;12.18;94.52;99195.13;5034960;28;20500;-54
2021/11/01 09:41:37;;;;;;;8.88;2.20;;;;;;;12.20;92.52;99203.00;5033476;28;20163;-50
2021/11/01 09:44:09;;;;;;;6.22;2.15;;;;;;;12.15;92.63;99189.19;5039655;28;20422;-52
2021/11/01 09:46:36;;;;;;;9.20;1.70;;;;;;;12.13;93.23;99191.13;5035129;28;20453;-52
2021/11/01 09:49:14;;;;;;;13.25;2.05;;;;;;;12.14;93.31;99192.81;5043994;28;20095;-53
2021/11/01 09:51:47;;;;;;;10.63;1.92;;;;;;;12.12;92.81;99181.50;5041805;28;20045;-52
2021/11/01 09:54:20;;;;;;;7.88;2.47;;;;;;;12.17;93.31;99174.88;5043931;28;20052;-53
2021/11/01 09:56:59;;;;;;;10.90;2.10;;;;;;;12.29;92.19;99167.81;5036485;28;20044;-53
2021/11/01 09:59:37;;;;;;;7.10;1.63;;;;;;;12.28;92.40;99180.22;5043739;28;20037;-54
2021/11/01 10:02:09;;;;;;;8.68;1.85;;;;;;;12.28;92.17;99197.97;5042763;28;20056;-53
2021/11/01 10:04:40;;;;;;;13.05;1.90;;;;;;;12.29;91.40;99197.84;5029890;28;20550;-53
2021/11/01 10:07:23;;;;;;;10.68;1.98;;;;;;;12.28;91.55;99182.88;5046121;28;20044;-54
2021/11/01 10:10:14;;;;;;;7.88;1.90;;;;;;;12.31;91.32;99184.47;5042997;28;20053;-54
2021/11/01 10:12:45;;;;;;;10.10;2.42;;;;;;;12.29;91.69;99181.94;5042560;28;20081;-53
2021/11/01 10:18:05;;;;;;;5.97;1.42;;;;;;;12.24;91.84;99170.81;5045831;28;20041;-51
2021/11/01 10:20:38;;;;;;;9.55;1.67;;;;;;;12.20;91.79;99177.31;5041929;28;20049;-51
2021/11/01 10:23:23;;;;;;;9.30;2.17;;;;;;;12.22;92.16;99174.53;5046900;28;20040;-54
2021/11/01 10:26:04;;;;;;;11.30;2.13;;;;;;;12.27;92.06;99175.06;5027314;28;20041;-53
2021/11/01 10:28:32;;;;;;;8.98;2.05;;;;;;;12.24;91.59;99160.19;5045819;28;20049;-53
2021/11/01 10:31:14;;;;;;;8.13;2.00;;;;;;;12.18;91.52;99147.38;5048196;28;20049;-52
2021/11/01 10:33:46;;;;;;;9.85;1.60;;;;;;;12.29;90.75;99166.00;5049656;28;20064;-54
2021/11/01 10:36:25;;;;;;;8.57;1.85;;;;;;;12.45;90.64;99159.56;5026453;28;20055;-53
2021/11/01 10:38:57;;;;;;;6.70;1.83;;;;;;;12.55;89.96;99153.47;5037757;28;20049;-52
2021/11/01 10:41:37;;;;;;;6.25;1.50;;;;;;;12.65;88.31;99150.97;5038216;28;20077;-50
2021/11/01 11:14:45;;;;;;;5.67;1.80;;;;;;;12.39;88.46;99160.03;5035332;28;20045;-54
2021/11/01 11:18:43;;;;;;;6.68;1.90;;;;;;;12.50;87.52;99145.00;5036096;28;20410;-52
2021/11/01 11:20:30;;;;;;;7.47;1.63;;;;;;;12.53;86.77;99133.28;5033362;28;20052;-52
2021/11/01 11:34:00;;;;;;;6.50;1.65;;;;;;;12.65;84.70;99124.41;5038729;28;20633;-54
2021/11/01 11:50:37;;;;;;;7.35;1.90;;;;;;;13.15;80.04;99107.28;5041187;28;20048;-52
2021/11/01 11:53:24;;;;;;;8.05;1.75;;;;;;;12.98;80.81;99105.88;5045492;28;20414;-54
2021/11/01 11:56:03;;;;;;;10.65;1.88;;;;;;;13.02;80.96;99113.63;5034754;28;20064;-55
2021/11/01 11:58:37;;;;;;;6.63;1.60;;;;;;;13.21;79.82;99121.91;5041828;28;20063;-54
2021/11/01 12:01:24;;;;;;;6.82;1.80;;;;;;;13.24;78.88;99124.31;5032827;28;20048;-52
2021/11/01 12:03:51;;;;;;;6.10;1.42;;;;;;;13.09;79.49;99122.81;5037444;28;20409;-52
2021/11/01 12:06:22;;;;;;;9.35;1.90;;;;;;;13.09;79.28;99120.16;5032900;28;20040;-52
2021/11/01 12:08:57;;;;;;;8.40;1.73;;;;;;;13.03;79.08;99107.34;5038912;28;20397;-52
2021/11/01 12:11:39;;;;;;;8.88;2.10;;;;;;;13.08;79.13;99103.34;5046978;28;20051;-55
2021/11/01 12:19:24;;;;;;;7.22;1.45;;;;;;;12.88;80.02;99114.69;5038097;28;20056;-54
2021/11/01 12:21:52;;;;;;;8.48;2.03;;;;;;;12.83;80.45;99107.06;5042531;28;20076;-54
2021/11/01 12:24:24;;;;;;;6.63;1.50;;;;;;;12.82;80.79;99109.84;5042374;28;20826;-53
2021/11/01 12:27:09;;;;;;;7.65;1.98;;;;;;;12.85;81.96;99107.81;5031756;28;20052;-53
2021/11/01 12:29:37;;;;;;;5.78;1.85;;;;;;;12.73;82.59;99102.59;5046460;28;20041;-53
2021/11/01 12:32:13;;;;;;;7.70;2.13;;;;;;;12.62;83.80;99103.38;5050056;28;21651;-53
2021/11/01 12:35:04;;;;;;;8.48;1.98;;;;;;;12.54;83.83;99109.28;5047259;28;20049;-54
2021/11/01 12:37:34;;;;;;;7.45;2.15;;;;;;;12.51;84.33;99108.66;5053468;28;20044;-52
2021/11/01 12:57:04;;;;;;;5.40;1.92;;;;;;;12.60;83.75;99095.53;5009511;28;20050;-52
2021/11/01 12:59:40;;;;;;;8.95;2.10;;;;;;;12.53;85.57;99093.47;5032069;28;20041;-51
2021/11/01 13:02:14;;;;;;;11.40;2.67;;;;;;;12.38;87.69;99089.31;5032816;28;20054;-53
2021/11/01 13:04:42;;;;;;;7.85;2.40;;;;;;;12.23;89.90;99091.31;5015750;28;20051;-52
2021/11/01 13:10:06;;;;;;;9.77;1.85;;;;;;;12.25;91.63;99078.78;5021102;28;20045;-53
2021/11/01 13:20:35;;;;;;;9.75;2.95;;;;;;;12.45;92.03;99071.94;5025421;28;20041;-54
2021/11/01 13:23:02;;;;;;;6.57;2.20;;;;;;;12.47;90.92;99068.22;5026591;28;20056;-53
2021/11/01 13:25:45;;;;;;;8.57;2.17;;;;;;;12.41;89.95;99071.34;5021415;28;20045;-54
2021/11/01 13:36:50;;;;;;;8.35;2.08;;;;;;;12.71;88.48;99062.84;5009080;28;21168;-53
2021/11/01 13:39:28;;;;;;;10.77;4.78;;;;;;;12.64;88.07;99062.47;5024974;28;20045;-54
2021/11/01 13:41:55;;;;;;;12.88;4.95;;;;;;;12.65;87.86;99061.50;5018551;28;20721;-53
2021/11/01 13:44:26;;;;;;;6.93;2.58;;;;;;;12.63;87.93;99051.97;5042271;28;20047;-53
2021/11/01 13:46:58;;;;;;;8.15;2.70;;;;;;;12.61;87.44;99049.41;5034780;28;20049;-52
2021/11/01 13:49:29;;;;;;;9.48;2.90;;;;;;;12.59;88.25;99061.97;5043646;28;20123;-54
2021/11/01 13:52:09;;;;;;;9.32;2.45;;;;;;;12.53;89.21;99072.22;5044995;28;20228;-52
2021/11/01 13:54:48;;;;;;;9.32;3.08;;;;;;;12.36;92.48;99075.31;5040278;28;20044;-53
2021/11/01 13:57:16;;;;;;;10.00;2.55;;;;;;;12.05;96.61;99068.78;5036337;28;20041;-53
2021/11/01 13:59:51;;;;;;;10.02;2.50;;;;;;;11.80;99.20;99075.06;5046302;28;20045;-52
2021/11/01 15:15:44;;;;;;;5.50;1.80;;;;;;;10.59;100.00;99069.44;5044163;28;20060;-52
2021/11/01 15:23:57;;;;;;;6.75;2.20;;;;;;;10.38;100.00;99068.25;5041615;28;20049;-52
2021/11/01 15:40:27;;;;;;;6.30;1.98;;;;;;;9.96;100.00;99078.03;5028244;28;20037;-53
2021/11/01 16:18:40;;;;;;;5.47;2.15;;;;;;;9.35;100.00;99071.41;5037227;28;20041;-52
2021/11/01 16:21:08;;;;;;;2.45;1.40;;;;;;;9.32;100.00;99074.22;5038583;28;20040;-53
2021/11/01 16:23:36;;;;;;;5.30;2.72;;;;;;;9.34;100.00;99084.69;5039245;28;20062;-56
2021/11/01 16:28:45;;;;;;;5.65;2.30;;;;;;;9.31;100.00;99091.03;5036626;28;20125;-53
2021/11/01 16:34:24;;;;;;;6.15;1.52;;;;;;;9.33;100.00;99094.41;4973240;28;20565;-53
2021/11/01 16:39:25;;;;;;;2.03;1.20;;;;;;;9.36;100.00;99088.94;5040006;28;20052;-52
2021/11/01 16:41:53;;;;;;;3.22;1.60;;;;;;;9.39;100.00;99090.56;5032482;28;20064;-53
2021/11/01 16:44:31;;;;;;;5.28;2.05;;;;;;;9.42;100.00;99098.28;5038194;28;20048;-54
2021/11/01 16:46:59;;;;;;;6.95;2.03;;;;;;;9.45;100.00;99098.94;5038144;28;20056;-54
2021/11/01 16:49:29;;;;;;;2.83;1.60;;;;;;;9.48;100.00;99100.53;5044394;28;20036;-52
2021/11/01 16:51:56;;;;;;;4.93;1.90;;;;;;;9.47;100.00;99097.03;5040571;28;20558;-51
2021/11/01 16:54:29;;;;;;;4.00;1.60;;;;;;;9.47;100.00;99102.31;5045074;28;20489;-53
2021/11/01 16:57:24;;;;;;;47.90;15.52;;;;;;;9.50;100.00;99104.78;5029779;28;20045;-52
2021/11/01 17:04:52;;;;;;;12.18;4.57;;;;;;;9.50;100.00;99112.69;5046601;28;20490;-52
2021/11/01 17:21:25;;;;;;;7.63;2.47;;;;;;;9.57;99.74;99133.47;5043332;28;20052;-52
2021/11/01 17:24:12;;;;;;;7.82;2.45;;;;;;;9.56;99.38;99131.78;5041597;28;20212;-53
2021/11/01 17:30:19;;;;;;;4.15;1.70;;;;;;;9.55;99.94;99133.56;5037164;28;20046;-53
2021/11/01 17:36:14;;;;;;;3.15;1.80;;;;;;;9.57;99.53;99120.25;5040056;28;20060;-54
2021/11/01 18:39:08;;;;;;;8.07;3.72;;;;;;;9.01;100.00;99135.16;5034196;28;20041;-52
2021/11/01 18:52:58;;;;;;;6.47;4.35;;;;;;;8.87;100.00;99129.88;5037406;28;20041;-53
2021/11/01 18:55:25;;;;;;;5.85;4.05;;;;;;;8.85;100.00;99124.66;5038239;28;20041;-53
2021/11/01 18:57:53;;;;;;;7.35;4.13;;;;;;;8.86;100.00;99120.25;5035939;28;20053;-53
2021/11/01 19:00:20;;;;;;;7.18;4.38;;;;;;;8.86;100.00;99125.53;5036875;28;20409;-55
2021/11/01 19:02:49;;;;;;;6.90;4.65;;;;;;;8.86;100.00;99126.38;5032780;28;20525;-53
2021/11/01 20:06:37;;;;;;;16.50;5.88;;;;;;;8.57;100.00;99104.38;5026417;28;20037;-53
2021/11/01 21:26:52;;;;;;;15.75;8.52;;;;;;;8.71;100.00;99107.03;5048448;28;20037;-52
2021/11/01 21:29:19;;;;;;;15.40;9.00;;;;;;;8.63;100.00;99101.38;5017050;28;20053;-53
2021/11/01 21:31:45;;;;;;;16.85;8.95;;;;;;;8.58;100.00;99105.22;5019558;28;20045;-53
2021/11/01 21:34:16;;;;;;;14.05;8.38;;;;;;;8.58;100.00;99103.44;5038780;28;20176;-53
2021/11/01 21:36:43;;;;;;;13.82;8.63;;;;;;;8.54;100.00;99096.63;5042944;28;20059;-54
2021/11/01 21:39:09;;;;;;;13.57;8.65;;;;;;;8.54;100.00;99096.63;5033298;28;20045;-53
2021/11/01 21:41:36;;;;;;;12.18;7.22;;;;;;;8.50;100.00;99102.19;5042356;28;20041;-52
2021/11/01 21:44:02;;;;;;;12.02;7.53;;;;;;;8.52;100.00;99108.19;5036024;28;20064;-54
2021/11/01 21:46:29;;;;;;;11.95;7.70;;;;;;;8.57;100.00;99107.00;5037874;28;20406;-54
2021/11/01 21:48:55;;;;;;;11.35;7.68;;;;;;;8.63;100.00;99109.28;5038045;28;20036;-54
2021/11/01 21:51:22;;;;;;;14.95;7.45;;;;;;;8.70;100.00;99105.34;5034512;28;20040;-53
2021/11/01 21:54:01;;;;;;;12.02;7.28;;;;;;;8.76;100.00;99102.34;5041447;28;20044;-54
2021/11/01 21:56:30;;;;;;;12.27;7.53;;;;;;;8.82;100.00;99103.72;5038678;28;20047;-55
2021/11/01 21:59:26;;;;;;;11.95;6.78;;;;;;;8.84;100.00;99095.72;5014638;28;20041;-53
2021/11/01 22:18:15;;;;;;;12.70;6.45;;;;;;;8.83;100.00;99094.03;5034779;28;20041;-53
2021/11/01 22:20:46;;;;;;;13.90;6.55;;;;;;;8.78;100.00;99081.13;5014370;28;20089;-52
2021/11/01 22:23:32;;;;;;;13.25;6.38;;;;;;;8.75;100.00;99082.16;5017749;28;20073;-54
2021/11/01 22:41:52;;;;;;;11.90;7.45;;;;;;;8.61;100.00;99057.53;5033501;28;20867;-55
2021/11/01 22:44:36;;;;;;;10.68;7.60;;;;;;;8.61;100.00;99060.19;5025483;28;20552;-53
2021/11/01 22:57:52;;;;;;;13.63;8.05;;;;;;;8.38;100.00;99051.00;5035118;28;20201;-53
2021/11/01 23:00:29;;;;;;;18.15;9.23;;;;;;;8.33;100.00;99048.66;5032794;28;20060;-53
2021/11/01 23:03:01;;;;;;;13.07;8.27;;;;;;;8.28;100.00;99047.19;5047452;28;20055;-53
2021/11/01 23:32:45;;;;;;;13.73;9.18;;;;;;;8.20;100.00;99026.50;5038629;28;20045;-53
2021/11/01 23:35:12;;;;;;;15.35;9.48;;;;;;;8.21;100.00;99017.66;5030117;28;20049;-53
2021/11/01 23:37:38;;;;;;;14.20;9.07;;;;;;;8.24;100.00;99021.91;5033026;28;20046;-53
2021/11/01 23:40:05;;;;;;;12.75;9.27;;;;;;;8.27;100.00;99017.31;5031765;28;20052;-52
2021/11/01 23:42:33;;;;;;;20.10;9.75;;;;;;;8.25;100.00;99026.25;5041064;28;20055;-53
2021/11/01 23:44:59;;;;;;;13.80;9.18;;;;;;;8.23;100.00;99026.34;5042744;28;20048;-54
2021/11/01 23:47:26;;;;;;;13.60;9.20;;;;;;;8.26;100.00;99018.25;5036880;28;20526;-55
2021/11/01 23:49:52;;;;;;;15.38;9.90;;;;;;;8.27;100.00;99027.00;5030608;28;20056;-53
2021/11/01 23:52:22;;;;;;;15.95;9.10;;;;;;;8.25;100.00;99013.91;5037593;28;20052;-53
2021/11/01 23:54:48;;;;;;;14.70;9.43;;;;;;;8.27;100.00;99005.91;5044191;28;20051;-53
2021/11/01 23:57:19;;;;;;;15.15;9.07;;;;;;;8.28;100.00;99012.88;5037264;28;20052;-53
2021/11/01 23:59:47;;;;;;;;;;;;;;;8.33;100.00;99009.09;5035213;28;20053;-52
